createdAt,value
2022-10-06T00:00:05.548Z,4.50
2022-10-06T00:02:35.894Z,4.23
2022-10-06T00:05:03.881Z,5.03
2022-10-06T00:07:32.090Z,4.83
2022-10-06T00:10:00.103Z,6.27
2022-10-06T00:12:29.054Z,4.00
2022-10-06T00:14:57.003Z,4.90
2022-10-06T00:17:24.613Z,5.17
2022-10-06T00:19:52.204Z,4.47
2022-10-06T00:22:20.138Z,4.43
2022-10-06T00:24:48.386Z,4.40
2022-10-06T00:27:15.981Z,4.10
2022-10-06T00:29:45.379Z,4.60
2022-10-06T00:32:13.425Z,4.53
2022-10-06T00:34:41.026Z,4.60
2022-10-06T00:37:08.928Z,4.90
2022-10-06T00:39:36.983Z,4.80
2022-10-06T00:42:05.085Z,4.10
2022-10-06T00:44:34.483Z,4.20
2022-10-06T00:47:03.872Z,4.40
2022-10-06T00:49:36.774Z,4.10
2022-10-06T00:52:10.278Z,5.23
2022-10-06T00:54:38.725Z,3.80
2022-10-06T00:57:07.018Z,4.43
2022-10-06T00:59:36.251Z,4.50
2022-10-06T01:02:11.508Z,4.57
2022-10-06T01:04:43.584Z,4.33
2022-10-06T01:07:12.248Z,4.93
2022-10-06T01:09:40.772Z,4.90
2022-10-06T01:12:10.063Z,4.23
2022-10-06T01:14:40.177Z,5.47
2022-10-06T01:17:15.193Z,4.30
2022-10-06T01:19:50.382Z,4.67
2022-10-06T01:22:27.670Z,4.37
2022-10-06T01:24:56.249Z,3.90
2022-10-06T01:27:26.573Z,4.53
2022-10-06T01:29:56.226Z,3.83
2022-10-06T01:32:26.396Z,3.90
2022-10-06T01:34:54.984Z,3.93
2022-10-06T01:37:23.165Z,3.77
2022-10-06T01:39:52.516Z,4.13
2022-10-06T01:42:20.495Z,4.40
2022-10-06T01:44:48.533Z,4.20
2022-10-06T01:47:16.174Z,4.33
2022-10-06T01:49:44.906Z,4.07
2022-10-06T01:52:12.971Z,4.50
2022-10-06T01:54:40.754Z,3.70
2022-10-06T01:57:10.173Z,3.73
2022-10-06T01:59:39.137Z,3.70
2022-10-06T02:02:06.826Z,3.87
2022-10-06T02:04:34.770Z,3.87
2022-10-06T02:07:02.656Z,4.03
2022-10-06T02:09:31.048Z,4.13
2022-10-06T02:11:58.946Z,4.17
2022-10-06T02:14:31.892Z,3.73
2022-10-06T02:17:00.426Z,4.10
2022-10-06T02:19:28.753Z,5.07
2022-10-06T02:21:59.223Z,3.87
2022-10-06T02:24:26.842Z,4.60
2022-10-06T02:26:54.908Z,3.80
2022-10-06T02:29:23.510Z,4.10
2022-10-06T02:31:52.580Z,4.30
2022-10-06T02:34:20.734Z,4.03
2022-10-06T02:36:48.409Z,4.20
2022-10-06T02:39:16.901Z,4.10
2022-10-06T02:41:44.562Z,4.67
2022-10-06T02:44:12.169Z,3.37
2022-10-06T02:46:43.260Z,3.80
2022-10-06T02:49:12.377Z,3.93
2022-10-06T02:51:40.765Z,4.53
2022-10-06T02:54:08.693Z,4.53
2022-10-06T02:56:38.251Z,4.30
2022-10-06T02:59:05.863Z,4.13
2022-10-06T03:01:36.694Z,3.90
2022-10-06T03:04:12.636Z,4.53
2022-10-06T03:06:42.427Z,4.53
2022-10-06T03:09:16.098Z,4.27
2022-10-06T03:11:45.216Z,4.93
2022-10-06T03:14:21.934Z,4.00
2022-10-06T03:16:51.483Z,4.23
2022-10-06T03:19:28.322Z,4.50
2022-10-06T03:21:56.450Z,4.70
2022-10-06T03:24:36.120Z,4.50
2022-10-06T03:27:04.126Z,4.00
2022-10-06T03:29:31.825Z,5.13
2022-10-06T03:32:00.339Z,3.60
2022-10-06T03:34:30.420Z,4.40
2022-10-06T03:37:00.535Z,4.03
2022-10-06T03:39:29.269Z,4.00
2022-10-06T03:41:57.693Z,5.23
2022-10-06T03:44:26.076Z,5.40
2022-10-06T03:46:54.213Z,5.27
2022-10-06T03:49:22.878Z,4.83
2022-10-06T03:51:52.070Z,5.23
2022-10-06T03:54:24.005Z,4.10
2022-10-06T03:56:54.966Z,5.10
2022-10-06T03:59:23.164Z,4.73
2022-10-06T04:01:53.010Z,5.10
2022-10-06T04:04:28.038Z,4.70
2022-10-06T04:07:02.462Z,4.90
2022-10-06T04:09:31.037Z,4.40
2022-10-06T04:11:59.074Z,6.17
2022-10-06T04:14:26.933Z,5.70
2022-10-06T04:16:57.443Z,5.10
2022-10-06T04:19:30.925Z,5.83
2022-10-06T04:21:59.587Z,5.33
2022-10-06T04:24:29.051Z,4.57
2022-10-06T04:27:17.830Z,5.23
2022-10-06T04:29:51.395Z,5.00
2022-10-06T04:32:19.473Z,5.00
2022-10-06T04:34:47.614Z,5.10
2022-10-06T04:37:15.867Z,5.50
2022-10-06T04:39:46.598Z,4.97
2022-10-06T04:42:14.808Z,5.13
2022-10-06T04:44:42.489Z,5.40
2022-10-06T04:47:10.891Z,5.90
2022-10-06T04:49:38.803Z,4.70
2022-10-06T04:52:06.702Z,5.07
2022-10-06T04:54:37.292Z,4.63
2022-10-06T04:57:08.363Z,4.33
2022-10-06T04:59:54.358Z,4.13
2022-10-06T05:02:23.496Z,5.20
2022-10-06T05:04:54.344Z,5.17
2022-10-06T05:07:24.066Z,4.40
2022-10-06T05:09:51.927Z,5.07
2022-10-06T05:12:21.387Z,5.30
2022-10-06T05:14:49.561Z,5.40
2022-10-06T05:17:18.139Z,5.30
2022-10-06T05:19:49.263Z,5.00
2022-10-06T05:22:17.591Z,5.43
2022-10-06T05:24:46.190Z,5.20
2022-10-06T05:27:14.152Z,4.93
2022-10-06T05:29:43.416Z,5.30
2022-10-06T05:32:11.812Z,5.17
2022-10-06T05:34:39.456Z,5.07
2022-10-06T05:37:07.585Z,4.50
2022-10-06T05:39:36.157Z,4.50
2022-10-06T05:42:04.229Z,5.10
2022-10-06T05:44:32.567Z,4.93
2022-10-06T05:47:04.245Z,5.13
2022-10-06T05:49:32.476Z,4.90
2022-10-06T05:52:03.394Z,5.80
2022-10-06T05:54:33.559Z,5.30
2022-10-06T05:57:01.465Z,5.50
2022-10-06T05:59:31.266Z,7.20
2022-10-06T06:02:00.456Z,6.03
2022-10-06T06:04:38.694Z,5.77
2022-10-06T06:07:06.588Z,6.00
2022-10-06T06:09:34.725Z,6.43
2022-10-06T06:12:04.598Z,6.00
2022-10-06T06:15:11.585Z,6.60
2022-10-06T06:17:56.258Z,5.97
2022-10-06T06:20:25.300Z,6.70
2022-10-06T06:22:53.797Z,5.97
2022-10-06T06:25:24.603Z,4.57
2022-10-06T06:27:52.242Z,4.10
2022-10-06T06:30:21.185Z,5.73
2022-10-06T06:32:48.758Z,5.27
2022-10-06T06:35:16.486Z,7.00
2022-10-06T06:37:48.778Z,5.13
2022-10-06T06:40:16.561Z,7.30
2022-10-06T06:42:44.190Z,6.47
2022-10-06T06:45:32.068Z,6.37
2022-10-06T06:48:06.000Z,5.60
2022-10-06T06:50:35.006Z,5.53
2022-10-06T06:53:04.682Z,5.67
2022-10-06T06:55:35.584Z,6.57
2022-10-06T06:58:03.158Z,6.53
2022-10-06T07:00:35.881Z,6.30
2022-10-06T07:03:06.049Z,6.90
2022-10-06T07:05:34.472Z,5.67
2022-10-06T07:08:03.886Z,5.90
2022-10-06T07:10:35.290Z,5.63
2022-10-06T07:13:03.189Z,5.83
2022-10-06T07:15:48.437Z,5.77
2022-10-06T07:18:34.153Z,5.90
2022-10-06T07:21:19.279Z,6.67
2022-10-06T07:24:09.042Z,6.40
2022-10-06T07:26:37.045Z,6.60
2022-10-06T07:29:04.755Z,7.77
2022-10-06T07:31:35.840Z,7.27
2022-10-06T07:34:04.836Z,6.93
2022-10-06T07:36:33.553Z,7.10
2022-10-06T07:39:02.624Z,6.13
2022-10-06T07:41:31.549Z,6.80
2022-10-06T07:44:08.055Z,7.27
2022-10-06T07:46:37.002Z,7.63
2022-10-06T07:49:09.599Z,5.90
2022-10-06T07:51:37.303Z,5.40
2022-10-06T07:54:06.912Z,6.00
2022-10-06T07:56:54.839Z,6.33
2022-10-06T07:59:22.719Z,6.17
2022-10-06T08:01:52.474Z,6.00
2022-10-06T08:04:20.497Z,6.33
2022-10-06T08:06:49.412Z,6.53
2022-10-06T08:09:18.729Z,4.60
2022-10-06T08:11:49.108Z,4.70
2022-10-06T08:14:16.721Z,5.10
2022-10-06T08:16:44.669Z,4.53
2022-10-06T08:19:12.867Z,5.23
2022-10-06T08:21:40.577Z,5.50
2022-10-06T08:24:09.816Z,6.20
2022-10-06T08:26:38.893Z,4.67
2022-10-06T08:29:06.495Z,5.87
2022-10-06T08:31:34.571Z,5.47
2022-10-06T08:34:02.424Z,5.50
2022-10-06T08:36:32.760Z,5.80
2022-10-06T08:39:01.146Z,6.00
2022-10-06T08:41:44.611Z,5.40
2022-10-06T08:44:22.605Z,4.90
2022-10-06T08:46:56.434Z,6.00
2022-10-06T08:49:26.912Z,5.73
2022-10-06T08:52:06.065Z,6.30
2022-10-06T08:54:40.748Z,6.23
2022-10-06T08:57:17.759Z,6.87
2022-10-06T08:59:49.001Z,6.53
2022-10-06T09:02:28.972Z,6.60
2022-10-06T09:04:59.456Z,5.47
2022-10-06T09:07:39.730Z,7.00
2022-10-06T09:10:29.612Z,5.87
2022-10-06T09:13:04.877Z,6.53
2022-10-06T09:15:36.417Z,6.07
2022-10-06T09:18:10.870Z,6.10
2022-10-06T09:20:44.701Z,5.50
2022-10-06T09:23:17.106Z,5.03
2022-10-06T09:26:28.359Z,5.67
2022-10-06T09:33:19.126Z,4.47
2022-10-06T09:36:06.241Z,4.70
2022-10-06T09:38:55.490Z,4.40
2022-10-06T09:41:26.821Z,4.70
2022-10-06T09:43:58.530Z,4.87
2022-10-06T09:46:32.395Z,4.10
2022-10-06T09:49:26.536Z,4.60
2022-10-06T09:52:16.171Z,4.17
2022-10-06T09:54:44.844Z,4.93
2022-10-06T09:57:17.532Z,3.83
2022-10-06T09:59:47.719Z,4.00
2022-10-06T10:02:28.233Z,4.40
2022-10-06T10:04:58.639Z,4.10
2022-10-06T10:07:28.310Z,2.13
2022-10-06T10:10:19.071Z,1.50
2022-10-06T10:12:50.708Z,1.73
2022-10-06T10:15:27.683Z,1.50
2022-10-06T10:17:58.004Z,1.30
2022-10-06T10:20:36.298Z,1.37
2022-10-06T10:23:30.125Z,1.57
2022-10-06T10:26:27.008Z,1.00
2022-10-06T10:29:36.948Z,1.27
2022-10-06T10:32:19.788Z,1.40
2022-10-06T10:35:03.938Z,1.47
2022-10-06T10:37:40.708Z,1.53
2022-10-06T10:40:18.941Z,1.27
2022-10-06T10:42:52.445Z,1.13
2022-10-06T10:45:26.043Z,3.03
2022-10-06T10:47:55.491Z,1.13
2022-10-06T10:50:28.195Z,0.90
2022-10-06T10:53:02.488Z,1.00
2022-10-06T10:55:35.347Z,1.50
2022-10-06T10:58:12.595Z,1.20
2022-10-06T11:00:46.550Z,1.20
2022-10-06T11:03:14.389Z,1.40
2022-10-06T11:06:06.148Z,1.23
2022-10-06T11:08:45.078Z,1.03
2022-10-06T11:11:18.960Z,1.07
2022-10-06T11:13:49.881Z,0.70
2022-10-06T11:16:30.143Z,1.20
2022-10-06T11:19:12.712Z,0.97
2022-10-06T11:21:44.540Z,1.13
2022-10-06T11:24:19.931Z,1.60
2022-10-06T11:27:12.887Z,0.80
2022-10-06T11:29:49.838Z,1.03
2022-10-06T11:32:26.404Z,1.03
2022-10-06T11:34:54.857Z,1.70
2022-10-06T11:37:34.985Z,1.00
2022-10-06T11:40:24.117Z,0.97
2022-10-06T11:42:55.749Z,1.27
2022-10-06T11:45:31.408Z,1.67
2022-10-06T11:48:20.174Z,0.73
2022-10-06T11:50:51.039Z,1.20
2022-10-06T11:53:38.750Z,0.90
2022-10-06T11:56:36.759Z,1.30
2022-10-06T11:59:28.430Z,1.00
2022-10-06T12:01:57.758Z,1.10
2022-10-06T12:04:27.268Z,0.90
2022-10-06T12:07:05.585Z,1.10
2022-10-06T12:10:23.058Z,1.27
2022-10-06T12:13:21.244Z,1.10
2022-10-06T12:17:08.537Z,1.47
2022-10-06T12:18:54.687Z,1.10
2022-10-06T12:21:36.844Z,1.10
2022-10-06T12:24:24.296Z,1.33
2022-10-06T12:27:01.937Z,1.17
2022-10-06T12:29:41.798Z,1.20
2022-10-06T12:32:20.273Z,1.50
2022-10-06T12:34:58.462Z,1.30
2022-10-06T12:37:42.554Z,1.20
2022-10-06T12:40:49.164Z,1.40
2022-10-06T12:43:28.694Z,1.23
2022-10-06T12:45:59.946Z,1.40
2022-10-06T12:48:34.877Z,1.10
2022-10-06T12:51:09.899Z,1.50
2022-10-06T12:53:45.690Z,1.30
2022-10-06T12:56:28.580Z,1.50
2022-10-06T12:58:56.773Z,1.40
2022-10-06T13:01:28.092Z,1.07
2022-10-06T13:03:56.502Z,1.40
2022-10-06T13:06:26.301Z,1.50
2022-10-06T13:09:07.494Z,1.90
2022-10-06T13:11:35.373Z,1.53
2022-10-06T13:14:11.694Z,1.10
2022-10-06T13:16:42.903Z,2.23
2022-10-06T13:19:20.246Z,1.30
2022-10-06T13:21:48.119Z,1.80
2022-10-06T13:24:20.484Z,2.03
2022-10-06T13:26:49.169Z,1.40
2022-10-06T13:29:22.665Z,1.33
2022-10-06T13:31:54.206Z,1.60
2022-10-06T13:34:31.084Z,2.17
2022-10-06T13:37:00.689Z,1.43
2022-10-06T13:39:31.615Z,1.23
2022-10-06T13:42:03.724Z,1.00
2022-10-06T13:44:36.473Z,1.30
2022-10-06T13:47:15.646Z,1.50
2022-10-06T13:49:48.655Z,1.73
2022-10-06T13:52:18.703Z,1.23
2022-10-06T13:54:51.865Z,1.53
2022-10-06T13:57:37.185Z,2.20
2022-10-06T14:00:16.237Z,1.70
2022-10-06T14:02:47.745Z,1.80
2022-10-06T14:05:29.269Z,1.50
2022-10-06T14:08:00.460Z,1.37
2022-10-06T14:10:32.210Z,1.40
2022-10-06T14:13:02.396Z,1.70
2022-10-06T14:15:35.399Z,1.30
2022-10-06T14:18:06.367Z,1.60
2022-10-06T14:20:42.168Z,1.20
2022-10-06T14:23:35.848Z,1.20
2022-10-06T14:26:03.473Z,1.10
2022-10-06T14:28:31.121Z,1.60
2022-10-06T14:30:59.818Z,1.60
2022-10-06T14:33:29.215Z,1.63
2022-10-06T14:35:58.049Z,1.07
2022-10-06T14:38:25.705Z,1.27
2022-10-06T14:40:54.632Z,1.60
2022-10-06T14:43:22.270Z,1.33
2022-10-06T14:45:50.227Z,1.60
2022-10-06T14:48:18.013Z,0.90
2022-10-06T14:50:47.289Z,1.20
2022-10-06T14:53:17.290Z,1.70
2022-10-06T14:55:45.714Z,1.70
2022-10-06T14:58:13.658Z,1.27
2022-10-06T15:00:43.573Z,1.17
2022-10-06T15:03:12.657Z,1.20
2022-10-06T15:06:00.377Z,2.40
2022-10-06T15:08:31.107Z,1.00
2022-10-06T15:10:58.715Z,2.20
2022-10-06T15:13:27.053Z,1.97
2022-10-06T15:15:58.735Z,1.17
2022-10-06T15:18:27.816Z,1.77
2022-10-06T15:20:55.434Z,1.40
2022-10-06T15:23:23.370Z,1.67
2022-10-06T15:26:41.536Z,2.03
2022-10-06T15:29:09.131Z,1.13
2022-10-06T15:31:38.463Z,1.60
2022-10-06T15:34:07.703Z,1.00
2022-10-06T15:36:37.118Z,1.30
2022-10-06T15:39:07.223Z,1.43
2022-10-06T15:41:38.557Z,2.00
2022-10-06T15:44:08.661Z,1.30
2022-10-06T15:46:38.981Z,1.50
2022-10-06T15:49:08.558Z,1.00
2022-10-06T15:51:43.342Z,1.03
2022-10-06T15:54:11.544Z,1.50
2022-10-06T15:56:42.496Z,1.30
2022-10-06T15:59:11.517Z,1.13
2022-10-06T16:01:43.619Z,1.10
2022-10-06T16:04:23.951Z,1.13
2022-10-06T16:06:56.322Z,1.30
2022-10-06T16:09:25.384Z,1.60
2022-10-06T16:11:56.721Z,1.27
2022-10-06T16:14:24.809Z,1.30
2022-10-06T16:16:53.590Z,1.20
2022-10-06T16:19:21.582Z,1.40
2022-10-06T16:21:51.938Z,1.10
2022-10-06T16:24:22.681Z,1.20
2022-10-06T16:26:51.448Z,1.20
2022-10-06T16:29:22.387Z,1.27
2022-10-06T16:31:50.417Z,2.10
2022-10-06T16:34:18.515Z,1.80
2022-10-06T16:36:46.398Z,3.23
2022-10-06T16:39:16.128Z,3.23
2022-10-06T16:41:44.249Z,1.60
2022-10-06T16:44:12.368Z,1.60
2022-10-06T16:46:41.818Z,2.10
2022-10-06T16:49:10.099Z,2.57
2022-10-06T16:51:39.474Z,2.30
2022-10-06T16:54:09.035Z,1.90
2022-10-06T16:56:38.834Z,2.60
2022-10-06T16:59:11.927Z,2.60
2022-10-06T17:01:41.029Z,2.43
2022-10-06T17:04:10.712Z,2.83
2022-10-06T17:06:40.347Z,2.47
2022-10-06T17:09:11.509Z,2.30
2022-10-06T17:11:39.646Z,2.17
2022-10-06T17:14:07.433Z,2.00
2022-10-06T17:16:37.548Z,1.63
2022-10-06T17:19:07.083Z,1.63
2022-10-06T17:21:55.740Z,1.63
2022-10-06T17:24:25.462Z,1.90
2022-10-06T17:26:54.093Z,1.80
2022-10-06T17:29:23.086Z,2.10
2022-10-06T17:31:59.303Z,2.10
2022-10-06T17:34:32.723Z,2.40
2022-10-06T17:37:01.838Z,1.90
2022-10-06T17:39:29.772Z,1.80
2022-10-06T17:41:57.465Z,1.90
2022-10-06T17:44:27.995Z,2.57
2022-10-06T17:46:57.370Z,1.80
2022-10-06T17:49:26.579Z,2.70
2022-10-06T17:51:56.533Z,2.97
2022-10-06T17:54:26.982Z,2.03
2022-10-06T17:56:56.376Z,2.30
2022-10-06T17:59:25.795Z,1.97
2022-10-06T18:01:56.405Z,2.00
2022-10-06T18:04:24.813Z,1.73
2022-10-06T18:06:54.069Z,1.97
2022-10-06T18:09:23.975Z,2.60
2022-10-06T18:11:55.716Z,2.73
2022-10-06T18:14:25.449Z,2.30
2022-10-06T18:16:56.454Z,2.43
2022-10-06T18:19:26.579Z,4.60
2022-10-06T18:21:56.343Z,2.67
2022-10-06T18:24:28.139Z,2.73
2022-10-06T18:26:57.396Z,2.10
2022-10-06T18:29:28.827Z,2.17
2022-10-06T18:32:15.238Z,2.30
2022-10-06T18:37:40.659Z,2.20
2022-10-06T18:40:15.413Z,3.93
2022-10-06T18:42:43.770Z,2.60
2022-10-06T18:45:34.260Z,6.13
2022-10-06T18:48:22.868Z,4.33
2022-10-06T18:51:00.262Z,2.70
2022-10-06T18:53:27.905Z,3.77
2022-10-06T18:55:57.557Z,3.57
2022-10-06T18:58:25.409Z,3.20
2022-10-06T19:00:54.533Z,3.37
2022-10-06T19:03:22.408Z,2.43
2022-10-06T19:05:53.344Z,3.47
2022-10-06T19:08:21.380Z,3.40
2022-10-06T19:11:03.623Z,2.93
2022-10-06T19:13:32.610Z,3.53
2022-10-06T19:16:01.641Z,4.40
2022-10-06T19:18:34.234Z,3.80
2022-10-06T19:21:04.887Z,5.30
2022-10-06T19:23:37.538Z,3.30
2022-10-06T19:26:07.166Z,2.67
2022-10-06T19:28:37.558Z,2.67
2022-10-06T19:31:09.016Z,2.40
2022-10-06T19:33:38.241Z,3.00
2022-10-06T19:36:07.318Z,2.60
2022-10-06T19:38:38.389Z,3.30
2022-10-06T19:41:23.791Z,3.57
2022-10-06T19:43:53.202Z,4.10
2022-10-06T19:46:21.017Z,4.47
2022-10-06T19:48:54.744Z,3.90
2022-10-06T19:51:22.363Z,4.70
2022-10-06T19:53:51.833Z,4.33
2022-10-06T19:56:23.159Z,2.83
2022-10-06T20:02:59.864Z,3.23
2022-10-06T20:13:48.896Z,4.07
2022-10-06T20:16:18.697Z,3.13
2022-10-06T20:18:52.700Z,3.50
2022-10-06T20:21:23.635Z,3.50
2022-10-06T20:23:55.479Z,3.63
2022-10-06T20:26:25.781Z,4.23
2022-10-06T20:28:55.810Z,4.40
2022-10-06T20:31:26.087Z,2.90
2022-10-06T20:33:56.253Z,3.07
2022-10-06T20:36:24.256Z,2.90
2022-10-06T20:39:09.322Z,3.57
2022-10-06T20:41:37.269Z,3.23
2022-10-06T20:44:19.274Z,3.63
2022-10-06T20:46:48.966Z,3.00
2022-10-06T20:49:17.808Z,3.70
2022-10-06T20:51:50.659Z,3.63
2022-10-06T20:54:21.286Z,3.90
2022-10-06T20:56:50.808Z,3.00
2022-10-06T20:59:23.373Z,3.57
2022-10-06T21:01:52.680Z,4.07
2022-10-06T21:04:21.460Z,3.63
2022-10-06T21:06:51.323Z,3.30
2022-10-06T21:09:20.031Z,2.90
2022-10-06T21:11:48.652Z,3.57
2022-10-06T21:14:17.871Z,3.40
2022-10-06T21:16:49.907Z,3.60
2022-10-06T21:19:20.520Z,2.87
2022-10-06T21:21:52.015Z,3.70
2022-10-06T21:24:20.550Z,2.80
2022-10-06T21:26:48.752Z,3.23
2022-10-06T21:29:17.788Z,2.60
2022-10-06T21:31:47.418Z,3.13
2022-10-06T21:34:15.795Z,3.20
2022-10-06T21:36:46.049Z,2.70
2022-10-06T21:39:15.030Z,2.27
2022-10-06T21:41:43.223Z,3.10
2022-10-06T21:44:13.167Z,3.10
2022-10-06T21:46:43.230Z,2.63
2022-10-06T21:49:14.472Z,2.50
2022-10-06T21:51:44.359Z,1.90
2022-10-06T21:54:12.581Z,2.70
2022-10-06T21:56:40.594Z,2.40
2022-10-06T21:59:10.635Z,3.30
2022-10-06T22:01:40.956Z,3.40
2022-10-06T22:04:09.764Z,3.57
2022-10-06T22:06:38.941Z,3.63
2022-10-06T22:09:09.401Z,3.03
2022-10-06T22:11:39.860Z,3.27
2022-10-06T22:14:11.447Z,3.00
2022-10-06T22:16:40.087Z,3.00
2022-10-06T22:19:09.722Z,4.03
2022-10-06T22:21:41.371Z,2.97
2022-10-06T22:24:12.397Z,3.40
2022-10-06T22:26:41.786Z,2.63
2022-10-06T22:29:11.670Z,3.00
2022-10-06T22:31:41.386Z,2.50
2022-10-06T22:34:11.775Z,3.00
2022-10-06T22:36:44.344Z,2.90
2022-10-06T22:39:12.175Z,3.10
2022-10-06T22:41:40.451Z,2.80
2022-10-06T22:44:08.422Z,2.80
2022-10-06T22:46:37.960Z,2.70
2022-10-06T22:49:08.236Z,2.47
2022-10-06T22:51:38.858Z,2.70
2022-10-06T22:54:08.200Z,2.97
2022-10-06T22:56:38.972Z,3.00
2022-10-06T22:59:06.861Z,2.60
2022-10-06T23:01:35.426Z,2.43
2022-10-06T23:04:03.141Z,3.63
2022-10-06T23:06:31.646Z,2.90
2022-10-06T23:08:59.893Z,3.17
2022-10-06T23:11:29.454Z,3.43
2022-10-06T23:13:57.850Z,4.47
2022-10-06T23:16:25.764Z,3.80
2022-10-06T23:18:55.259Z,2.83
2022-10-06T23:21:27.973Z,3.90
2022-10-06T23:23:59.044Z,3.37
2022-10-06T23:26:27.719Z,2.80
2022-10-06T23:28:58.258Z,2.70
2022-10-06T23:31:27.566Z,3.70
2022-10-06T23:33:57.087Z,2.93
2022-10-06T23:36:25.772Z,3.23
2022-10-06T23:38:54.120Z,3.50
2022-10-06T23:41:21.899Z,3.50
2022-10-06T23:43:49.861Z,2.67
2022-10-06T23:46:19.540Z,3.07
2022-10-06T23:48:47.304Z,2.90
2022-10-06T23:51:17.719Z,2.87
2022-10-06T23:53:47.741Z,3.10
2022-10-06T23:56:15.872Z,3.80
2022-10-06T23:58:44.125Z,3.33
